KEGV

Eagle River Union Airport

Eagle River, Wisconsin, USA
METAR KEGV 241215Z AUTO 00000KT 1 1/2SM BR OVC002 M15/M16 A3016 RMK AO2 T11461165
Observed Flight Rules
Feb-24 @ 12:15 UTC (6 minutes ago) Instrument Flight Rules
Wind Visibility Clouds Conditions
Calm 1 1/2 miles
  • Overcast at 200' AGL
  • Mist
Temperatures Readings
Current -15°C / 5°F
Dewpoint -17°C / 1°F
Humidity 85%
Altimeter 30.16" Hg
Pressure 1021 hPa
Elevation 500
METAR KEGV 241215Z AUTO 00000KT 1 1/2SM BR OVC002 M15/M16 A3016 RMK AO2 T11461165
Observed Flight Rules
Feb-24 @ 12:15 UTC
(6 minutes ago)
LIFR
Wind Visibility
Calm 1 1/2 miles
Clouds
  • Overcast at 200' AGL
Conditions
  • Mist
Temperature Dewpoint
-15°C / 5°F -17°C / 1°F
Humidity Altimeter Pressure
85% 30.16" Hg 1021 hPa